sensor_id;sensor_type;location;lat;lon;timestamp;P1;durP1;ratioP1;P2;durP2;ratioP2
68379;SDS011;57711;53.196;19.638;2023-05-14T00:01:41;9.50;;;5.20;;
68379;SDS011;57711;53.196;19.638;2023-05-14T00:04:08;10.70;;;5.00;;
68379;SDS011;57711;53.196;19.638;2023-05-14T00:06:36;12.60;;;5.60;;
68379;SDS011;57711;53.196;19.638;2023-05-14T00:09:03;12.10;;;6.00;;
68379;SDS011;57711;53.196;19.638;2023-05-14T00:11:32;13.30;;;5.70;;
68379;SDS011;57711;53.196;19.638;2023-05-14T00:13:59;11.80;;;5.50;;
68379;SDS011;57711;53.196;19.638;2023-05-14T00:16:26;17.00;;;6.70;;
68379;SDS011;57711;53.196;19.638;2023-05-14T00:18:53;10.50;;;5.80;;
68379;SDS011;57711;53.196;19.638;2023-05-14T00:21:20;12.50;;;5.70;;
68379;SDS011;57711;53.196;19.638;2023-05-14T00:23:47;14.90;;;6.00;;
68379;SDS011;57711;53.196;19.638;2023-05-14T00:26:15;8.60;;;5.20;;
68379;SDS011;57711;53.196;19.638;2023-05-14T00:28:42;11.00;;;5.10;;
68379;SDS011;57711;53.196;19.638;2023-05-14T00:31:10;11.70;;;6.30;;
68379;SDS011;57711;53.196;19.638;2023-05-14T00:33:37;14.20;;;6.50;;
68379;SDS011;57711;53.196;19.638;2023-05-14T00:36:04;20.00;;;7.30;;
68379;SDS011;57711;53.196;19.638;2023-05-14T00:38:31;19.20;;;6.70;;
68379;SDS011;57711;53.196;19.638;2023-05-14T00:40:59;10.30;;;5.30;;
68379;SDS011;57711;53.196;19.638;2023-05-14T00:43:26;10.20;;;5.50;;
68379;SDS011;57711;53.196;19.638;2023-05-14T00:45:53;11.30;;;4.50;;
68379;SDS011;57711;53.196;19.638;2023-05-14T00:48:21;10.70;;;4.70;;
68379;SDS011;57711;53.196;19.638;2023-05-14T00:50:49;10.30;;;4.20;;
68379;SDS011;57711;53.196;19.638;2023-05-14T00:53:17;9.00;;;4.80;;
68379;SDS011;57711;53.196;19.638;2023-05-14T00:55:46;18.90;;;8.00;;
68379;SDS011;57711;53.196;19.638;2023-05-14T00:58:15;16.30;;;7.40;;
68379;SDS011;57711;53.196;19.638;2023-05-14T01:00:44;18.40;;;7.20;;
68379;SDS011;57711;53.196;19.638;2023-05-14T01:03:11;14.60;;;7.00;;
68379;SDS011;57711;53.196;19.638;2023-05-14T01:11:39;17.10;;;5.90;;
68379;SDS011;57711;53.196;19.638;2023-05-14T01:14:21;8.60;;;5.50;;
68379;SDS011;57711;53.196;19.638;2023-05-14T01:16:55;11.90;;;6.30;;
68379;SDS011;57711;53.196;19.638;2023-05-14T01:19:40;12.80;;;6.30;;
68379;SDS011;57711;53.196;19.638;2023-05-14T01:22:09;13.20;;;6.60;;
68379;SDS011;57711;53.196;19.638;2023-05-14T01:24:37;15.30;;;6.00;;
68379;SDS011;57711;53.196;19.638;2023-05-14T01:30:09;156.90;;;104.70;;
68379;SDS011;57711;53.196;19.638;2023-05-14T01:32:59;121.90;;;79.90;;
68379;SDS011;57711;53.196;19.638;2023-05-14T01:35:29;70.40;;;46.30;;
68379;SDS011;57711;53.196;19.638;2023-05-14T01:38:00;53.70;;;31.00;;
68379;SDS011;57711;53.196;19.638;2023-05-14T01:40:29;27.10;;;15.90;;
68379;SDS011;57711;53.196;19.638;2023-05-14T01:42:59;28.00;;;13.70;;
68379;SDS011;57711;53.196;19.638;2023-05-14T01:45:26;36.90;;;18.10;;
68379;SDS011;57711;53.196;19.638;2023-05-14T01:47:53;29.30;;;12.50;;
68379;SDS011;57711;53.196;19.638;2023-05-14T01:50:21;50.70;;;23.60;;
68379;SDS011;57711;53.196;19.638;2023-05-14T01:52:48;31.10;;;14.10;;
68379;SDS011;57711;53.196;19.638;2023-05-14T01:55:19;37.70;;;16.10;;
68379;SDS011;57711;53.196;19.638;2023-05-14T01:57:47;29.00;;;13.30;;
68379;SDS011;57711;53.196;19.638;2023-05-14T02:00:14;18.40;;;8.90;;
68379;SDS011;57711;53.196;19.638;2023-05-14T02:02:41;18.80;;;7.30;;
68379;SDS011;57711;53.196;19.638;2023-05-14T02:05:10;15.50;;;6.70;;
68379;SDS011;57711;53.196;19.638;2023-05-14T02:07:38;10.30;;;6.00;;
68379;SDS011;57711;53.196;19.638;2023-05-14T02:10:05;12.90;;;5.90;;
68379;SDS011;57711;53.196;19.638;2023-05-14T02:12:33;9.60;;;5.70;;
68379;SDS011;57711;53.196;19.638;2023-05-14T02:15:01;10.90;;;6.10;;
68379;SDS011;57711;53.196;19.638;2023-05-14T02:17:29;9.30;;;5.50;;
68379;SDS011;57711;53.196;19.638;2023-05-14T02:19:56;12.20;;;5.70;;
68379;SDS011;57711;53.196;19.638;2023-05-14T02:22:24;15.40;;;6.80;;
68379;SDS011;57711;53.196;19.638;2023-05-14T02:24:51;9.40;;;6.60;;
68379;SDS011;57711;53.196;19.638;2023-05-14T02:27:18;13.20;;;6.00;;
68379;SDS011;57711;53.196;19.638;2023-05-14T02:29:46;10.40;;;5.90;;
68379;SDS011;57711;53.196;19.638;2023-05-14T02:32:13;14.40;;;8.20;;
68379;SDS011;57711;53.196;19.638;2023-05-14T02:34:41;25.00;;;13.70;;
68379;SDS011;57711;53.196;19.638;2023-05-14T02:37:08;23.10;;;11.90;;
68379;SDS011;57711;53.196;19.638;2023-05-14T02:39:36;19.10;;;11.20;;
68379;SDS011;57711;53.196;19.638;2023-05-14T02:42:03;22.80;;;12.90;;
68379;SDS011;57711;53.196;19.638;2023-05-14T02:44:30;20.30;;;13.30;;
68379;SDS011;57711;53.196;19.638;2023-05-14T02:46:58;23.50;;;13.60;;
68379;SDS011;57711;53.196;19.638;2023-05-14T02:49:25;24.00;;;11.20;;
68379;SDS011;57711;53.196;19.638;2023-05-14T02:51:52;21.40;;;12.10;;
68379;SDS011;57711;53.196;19.638;2023-05-14T02:54:20;27.60;;;13.50;;
68379;SDS011;57711;53.196;19.638;2023-05-14T02:56:47;17.60;;;11.20;;
68379;SDS011;57711;53.196;19.638;2023-05-14T02:59:14;22.20;;;9.90;;
68379;SDS011;57711;53.196;19.638;2023-05-14T03:01:42;13.80;;;7.90;;
68379;SDS011;57711;53.196;19.638;2023-05-14T03:04:10;17.80;;;8.60;;
68379;SDS011;57711;53.196;19.638;2023-05-14T03:06:37;17.10;;;8.50;;
68379;SDS011;57711;53.196;19.638;2023-05-14T03:09:04;19.60;;;11.00;;
68379;SDS011;57711;53.196;19.638;2023-05-14T03:11:31;22.70;;;11.40;;
68379;SDS011;57711;53.196;19.638;2023-05-14T03:13:59;14.60;;;8.60;;
68379;SDS011;57711;53.196;19.638;2023-05-14T03:16:26;13.30;;;7.40;;
68379;SDS011;57711;53.196;19.638;2023-05-14T03:18:54;12.60;;;6.70;;
68379;SDS011;57711;53.196;19.638;2023-05-14T03:21:21;8.80;;;5.80;;
68379;SDS011;57711;53.196;19.638;2023-05-14T03:23:48;10.00;;;6.00;;
68379;SDS011;57711;53.196;19.638;2023-05-14T03:26:17;10.90;;;6.20;;
68379;SDS011;57711;53.196;19.638;2023-05-14T03:28:44;10.80;;;6.30;;
68379;SDS011;57711;53.196;19.638;2023-05-14T03:31:11;8.10;;;5.80;;
68379;SDS011;57711;53.196;19.638;2023-05-14T03:33:38;8.80;;;5.70;;
68379;SDS011;57711;53.196;19.638;2023-05-14T03:36:06;12.60;;;5.40;;
68379;SDS011;57711;53.196;19.638;2023-05-14T03:38:33;8.20;;;5.60;;
68379;SDS011;57711;53.196;19.638;2023-05-14T03:41:01;9.00;;;5.60;;
68379;SDS011;57711;53.196;19.638;2023-05-14T03:43:28;8.40;;;5.90;;
68379;SDS011;57711;53.196;19.638;2023-05-14T03:45:55;11.50;;;5.60;;
68379;SDS011;57711;53.196;19.638;2023-05-14T03:48:22;17.30;;;5.80;;
68379;SDS011;57711;53.196;19.638;2023-05-14T03:50:50;9.50;;;5.30;;
68379;SDS011;57711;53.196;19.638;2023-05-14T03:53:17;10.80;;;5.40;;
68379;SDS011;57711;53.196;19.638;2023-05-14T03:55:44;9.00;;;5.50;;
68379;SDS011;57711;53.196;19.638;2023-05-14T03:58:12;11.50;;;5.30;;
68379;SDS011;57711;53.196;19.638;2023-05-14T04:00:40;14.20;;;5.30;;
68379;SDS011;57711;53.196;19.638;2023-05-14T04:03:09;7.30;;;5.00;;
68379;SDS011;57711;53.196;19.638;2023-05-14T04:05:37;9.50;;;5.40;;
68379;SDS011;57711;53.196;19.638;2023-05-14T04:08:05;6.00;;;4.90;;
68379;SDS011;57711;53.196;19.638;2023-05-14T04:10:32;7.10;;;5.10;;
68379;SDS011;57711;53.196;19.638;2023-05-14T04:12:59;9.00;;;5.10;;
68379;SDS011;57711;53.196;19.638;2023-05-14T04:15:30;14.70;;;6.40;;
68379;SDS011;57711;53.196;19.638;2023-05-14T04:17:58;11.70;;;5.70;;
68379;SDS011;57711;53.196;19.638;2023-05-14T04:20:26;9.90;;;5.50;;
68379;SDS011;57711;53.196;19.638;2023-05-14T04:22:54;12.20;;;4.70;;
68379;SDS011;57711;53.196;19.638;2023-05-14T04:25:21;10.80;;;4.70;;
68379;SDS011;57711;53.196;19.638;2023-05-14T04:27:48;15.80;;;4.80;;
68379;SDS011;57711;53.196;19.638;2023-05-14T04:30:15;11.60;;;5.00;;
68379;SDS011;57711;53.196;19.638;2023-05-14T04:32:42;7.70;;;5.30;;
68379;SDS011;57711;53.196;19.638;2023-05-14T04:35:10;11.60;;;5.00;;
68379;SDS011;57711;53.196;19.638;2023-05-14T04:37:38;7.90;;;5.40;;
68379;SDS011;57711;53.196;19.638;2023-05-14T04:40:07;13.20;;;5.50;;
68379;SDS011;57711;53.196;19.638;2023-05-14T04:42:37;9.80;;;4.60;;
68379;SDS011;57711;53.196;19.638;2023-05-14T04:45:05;6.70;;;4.50;;
68379;SDS011;57711;53.196;19.638;2023-05-14T04:47:32;13.00;;;4.50;;
68379;SDS011;57711;53.196;19.638;2023-05-14T04:50:00;17.00;;;5.30;;
68379;SDS011;57711;53.196;19.638;2023-05-14T04:52:27;12.70;;;4.50;;
68379;SDS011;57711;53.196;19.638;2023-05-14T04:54:54;8.20;;;4.60;;
68379;SDS011;57711;53.196;19.638;2023-05-14T04:57:22;11.00;;;4.20;;
68379;SDS011;57711;53.196;19.638;2023-05-14T04:59:49;6.20;;;4.80;;
68379;SDS011;57711;53.196;19.638;2023-05-14T05:02:17;5.60;;;4.10;;
68379;SDS011;57711;53.196;19.638;2023-05-14T05:04:44;7.40;;;4.60;;
68379;SDS011;57711;53.196;19.638;2023-05-14T05:07:12;5.40;;;4.10;;
68379;SDS011;57711;53.196;19.638;2023-05-14T05:09:41;7.50;;;4.50;;
68379;SDS011;57711;53.196;19.638;2023-05-14T05:12:08;14.60;;;4.60;;
68379;SDS011;57711;53.196;19.638;2023-05-14T05:14:36;9.00;;;4.50;;
68379;SDS011;57711;53.196;19.638;2023-05-14T05:17:03;9.70;;;4.60;;
68379;SDS011;57711;53.196;19.638;2023-05-14T05:19:30;6.60;;;4.50;;
68379;SDS011;57711;53.196;19.638;2023-05-14T05:22:09;5.00;;;3.60;;
68379;SDS011;57711;53.196;19.638;2023-05-14T05:24:36;8.80;;;4.20;;
68379;SDS011;57711;53.196;19.638;2023-05-14T05:27:04;9.90;;;3.90;;
68379;SDS011;57711;53.196;19.638;2023-05-14T05:29:31;9.80;;;4.10;;
68379;SDS011;57711;53.196;19.638;2023-05-14T05:31:59;8.30;;;4.10;;
68379;SDS011;57711;53.196;19.638;2023-05-14T05:34:26;14.80;;;3.90;;
68379;SDS011;57711;53.196;19.638;2023-05-14T05:36:53;6.90;;;3.70;;
68379;SDS011;57711;53.196;19.638;2023-05-14T05:39:21;6.10;;;3.50;;
68379;SDS011;57711;53.196;19.638;2023-05-14T05:41:48;10.30;;;4.40;;
68379;SDS011;57711;53.196;19.638;2023-05-14T05:44:15;6.80;;;3.90;;
68379;SDS011;57711;53.196;19.638;2023-05-14T05:46:42;6.70;;;3.70;;
68379;SDS011;57711;53.196;19.638;2023-05-14T05:49:09;4.70;;;3.60;;
68379;SDS011;57711;53.196;19.638;2023-05-14T05:51:36;12.00;;;4.20;;
68379;SDS011;57711;53.196;19.638;2023-05-14T05:54:03;6.70;;;3.80;;
68379;SDS011;57711;53.196;19.638;2023-05-14T05:56:31;7.90;;;3.90;;
68379;SDS011;57711;53.196;19.638;2023-05-14T05:58:58;6.20;;;3.90;;
68379;SDS011;57711;53.196;19.638;2023-05-14T06:01:25;7.60;;;4.00;;
68379;SDS011;57711;53.196;19.638;2023-05-14T06:03:52;8.20;;;4.30;;
68379;SDS011;57711;53.196;19.638;2023-05-14T06:06:19;5.90;;;3.30;;
68379;SDS011;57711;53.196;19.638;2023-05-14T06:08:47;7.30;;;3.70;;
68379;SDS011;57711;53.196;19.638;2023-05-14T06:11:14;6.80;;;3.80;;
68379;SDS011;57711;53.196;19.638;2023-05-14T06:13:42;10.30;;;3.70;;
68379;SDS011;57711;53.196;19.638;2023-05-14T06:16:09;7.70;;;4.00;;
68379;SDS011;57711;53.196;19.638;2023-05-14T06:18:37;10.20;;;4.20;;
68379;SDS011;57711;53.196;19.638;2023-05-14T06:21:04;11.70;;;5.40;;
68379;SDS011;57711;53.196;19.638;2023-05-14T06:23:31;14.30;;;7.90;;
68379;SDS011;57711;53.196;19.638;2023-05-14T06:25:59;25.40;;;13.20;;
68379;SDS011;57711;53.196;19.638;2023-05-14T06:28:26;12.20;;;6.50;;
68379;SDS011;57711;53.196;19.638;2023-05-14T06:30:53;13.80;;;6.40;;
68379;SDS011;57711;53.196;19.638;2023-05-14T06:33:20;13.80;;;5.70;;
68379;SDS011;57711;53.196;19.638;2023-05-14T06:35:58;14.40;;;5.50;;
68379;SDS011;57711;53.196;19.638;2023-05-14T06:38:26;12.50;;;4.30;;
68379;SDS011;57711;53.196;19.638;2023-05-14T06:40:53;10.80;;;5.20;;
68379;SDS011;57711;53.196;19.638;2023-05-14T06:43:21;7.20;;;4.70;;
68379;SDS011;57711;53.196;19.638;2023-05-14T06:45:48;13.30;;;4.50;;
68379;SDS011;57711;53.196;19.638;2023-05-14T06:48:16;16.00;;;4.40;;
68379;SDS011;57711;53.196;19.638;2023-05-14T06:50:45;16.00;;;4.60;;
68379;SDS011;57711;53.196;19.638;2023-05-14T06:53:13;7.70;;;3.90;;
68379;SDS011;57711;53.196;19.638;2023-05-14T06:55:41;7.30;;;3.30;;
68379;SDS011;57711;53.196;19.638;2023-05-14T06:58:08;12.00;;;4.70;;
68379;SDS011;57711;53.196;19.638;2023-05-14T07:00:35;5.80;;;3.20;;
68379;SDS011;57711;53.196;19.638;2023-05-14T07:03:02;6.90;;;4.00;;
68379;SDS011;57711;53.196;19.638;2023-05-14T07:05:30;7.70;;;4.00;;
68379;SDS011;57711;53.196;19.638;2023-05-14T07:07:57;8.30;;;3.40;;
68379;SDS011;57711;53.196;19.638;2023-05-14T07:10:24;4.50;;;3.10;;
68379;SDS011;57711;53.196;19.638;2023-05-14T07:12:52;6.70;;;3.80;;
68379;SDS011;57711;53.196;19.638;2023-05-14T07:15:19;12.60;;;9.10;;
68379;SDS011;57711;53.196;19.638;2023-05-14T07:17:46;6.20;;;2.90;;
68379;SDS011;57711;53.196;19.638;2023-05-14T07:20:14;12.50;;;4.60;;
68379;SDS011;57711;53.196;19.638;2023-05-14T07:22:41;3.90;;;2.80;;
68379;SDS011;57711;53.196;19.638;2023-05-14T07:25:08;4.40;;;2.30;;
68379;SDS011;57711;53.196;19.638;2023-05-14T07:27:35;4.80;;;2.30;;
68379;SDS011;57711;53.196;19.638;2023-05-14T07:30:03;3.40;;;2.20;;
68379;SDS011;57711;53.196;19.638;2023-05-14T07:32:30;4.10;;;2.80;;
68379;SDS011;57711;53.196;19.638;2023-05-14T07:34:57;3.70;;;2.40;;
68379;SDS011;57711;53.196;19.638;2023-05-14T07:37:24;6.20;;;2.10;;
68379;SDS011;57711;53.196;19.638;2023-05-14T07:39:51;5.40;;;3.00;;
68379;SDS011;57711;53.196;19.638;2023-05-14T07:42:19;4.60;;;2.10;;
68379;SDS011;57711;53.196;19.638;2023-05-14T07:45:02;7.40;;;2.70;;
68379;SDS011;57711;53.196;19.638;2023-05-14T07:47:29;9.30;;;2.80;;
68379;SDS011;57711;53.196;19.638;2023-05-14T07:49:57;9.20;;;2.70;;
68379;SDS011;57711;53.196;19.638;2023-05-14T07:52:24;7.80;;;2.50;;
68379;SDS011;57711;53.196;19.638;2023-05-14T07:54:52;11.10;;;2.60;;
68379;SDS011;57711;53.196;19.638;2023-05-14T07:57:19;7.20;;;4.10;;
68379;SDS011;57711;53.196;19.638;2023-05-14T07:59:46;3.30;;;2.50;;
68379;SDS011;57711;53.196;19.638;2023-05-14T08:02:14;10.90;;;4.60;;
68379;SDS011;57711;53.196;19.638;2023-05-14T08:04:43;19.40;;;12.10;;
68379;SDS011;57711;53.196;19.638;2023-05-14T08:07:10;9.20;;;3.40;;
68379;SDS011;57711;53.196;19.638;2023-05-14T08:09:37;15.70;;;5.70;;
68379;SDS011;57711;53.196;19.638;2023-05-14T08:12:05;11.90;;;6.50;;
68379;SDS011;57711;53.196;19.638;2023-05-14T08:14:33;5.30;;;3.20;;
68379;SDS011;57711;53.196;19.638;2023-05-14T08:17:00;18.80;;;12.80;;
68379;SDS011;57711;53.196;19.638;2023-05-14T08:19:27;8.10;;;2.60;;
68379;SDS011;57711;53.196;19.638;2023-05-14T08:21:54;2.80;;;1.80;;
68379;SDS011;57711;53.196;19.638;2023-05-14T08:24:21;16.10;;;11.90;;
68379;SDS011;57711;53.196;19.638;2023-05-14T08:26:48;7.60;;;2.40;;
68379;SDS011;57711;53.196;19.638;2023-05-14T08:29:16;14.40;;;2.80;;
68379;SDS011;57711;53.196;19.638;2023-05-14T08:31:43;7.70;;;2.20;;
68379;SDS011;57711;53.196;19.638;2023-05-14T08:34:10;8.00;;;4.20;;
68379;SDS011;57711;53.196;19.638;2023-05-14T08:36:37;5.90;;;2.60;;
68379;SDS011;57711;53.196;19.638;2023-05-14T08:39:05;12.40;;;4.90;;
68379;SDS011;57711;53.196;19.638;2023-05-14T08:41:35;14.70;;;6.10;;
68379;SDS011;57711;53.196;19.638;2023-05-14T08:46:30;12.00;;;8.30;;
68379;SDS011;57711;53.196;19.638;2023-05-14T08:49:04;8.20;;;2.80;;
68379;SDS011;57711;53.196;19.638;2023-05-14T08:51:40;2.90;;;2.10;;
68379;SDS011;57711;53.196;19.638;2023-05-14T08:54:08;9.70;;;3.10;;
68379;SDS011;57711;53.196;19.638;2023-05-14T08:56:40;9.00;;;2.50;;
68379;SDS011;57711;53.196;19.638;2023-05-14T08:59:07;5.90;;;2.00;;
68379;SDS011;57711;53.196;19.638;2023-05-14T09:01:36;6.60;;;3.20;;
68379;SDS011;57711;53.196;19.638;2023-05-14T09:04:08;7.40;;;2.30;;
68379;SDS011;57711;53.196;19.638;2023-05-14T09:06:37;5.40;;;2.40;;
68379;SDS011;57711;53.196;19.638;2023-05-14T09:09:05;7.20;;;4.90;;
68379;SDS011;57711;53.196;19.638;2023-05-14T09:11:32;9.60;;;6.00;;
68379;SDS011;57711;53.196;19.638;2023-05-14T09:14:00;15.80;;;10.70;;
68379;SDS011;57711;53.196;19.638;2023-05-14T09:16:27;7.30;;;3.30;;
68379;SDS011;57711;53.196;19.638;2023-05-14T09:18:54;9.20;;;3.60;;
68379;SDS011;57711;53.196;19.638;2023-05-14T09:21:21;3.70;;;2.40;;
68379;SDS011;57711;53.196;19.638;2023-05-14T09:23:52;10.70;;;2.30;;
68379;SDS011;57711;53.196;19.638;2023-05-14T09:26:23;17.60;;;4.70;;
68379;SDS011;57711;53.196;19.638;2023-05-14T09:28:54;6.70;;;2.60;;
68379;SDS011;57711;53.196;19.638;2023-05-14T09:31:23;10.00;;;3.40;;
68379;SDS011;57711;53.196;19.638;2023-05-14T09:33:50;4.60;;;2.60;;
68379;SDS011;57711;53.196;19.638;2023-05-14T09:36:18;6.80;;;3.60;;
68379;SDS011;57711;53.196;19.638;2023-05-14T09:38:45;6.20;;;2.40;;
68379;SDS011;57711;53.196;19.638;2023-05-14T09:41:12;7.50;;;2.10;;
68379;SDS011;57711;53.196;19.638;2023-05-14T09:43:39;9.70;;;2.10;;
68379;SDS011;57711;53.196;19.638;2023-05-14T09:46:06;4.30;;;2.00;;
68379;SDS011;57711;53.196;19.638;2023-05-14T09:48:33;3.20;;;2.20;;
68379;SDS011;57711;53.196;19.638;2023-05-14T09:51:01;4.70;;;3.00;;
68379;SDS011;57711;53.196;19.638;2023-05-14T09:53:31;10.00;;;3.10;;
68379;SDS011;57711;53.196;19.638;2023-05-14T09:56:00;8.10;;;2.70;;
68379;SDS011;57711;53.196;19.638;2023-05-14T09:58:27;5.50;;;3.20;;
68379;SDS011;57711;53.196;19.638;2023-05-14T10:00:56;3.50;;;2.40;;
68379;SDS011;57711;53.196;19.638;2023-05-14T10:03:24;3.70;;;2.10;;
68379;SDS011;57711;53.196;19.638;2023-05-14T10:05:53;7.40;;;2.10;;
68379;SDS011;57711;53.196;19.638;2023-05-14T10:08:32;15.50;;;3.90;;
68379;SDS011;57711;53.196;19.638;2023-05-14T10:11:05;6.60;;;2.20;;
68379;SDS011;57711;53.196;19.638;2023-05-14T10:13:41;4.20;;;1.60;;
68379;SDS011;57711;53.196;19.638;2023-05-14T10:16:18;5.20;;;2.20;;
68379;SDS011;57711;53.196;19.638;2023-05-14T10:18:51;6.00;;;2.10;;
68379;SDS011;57711;53.196;19.638;2023-05-14T10:21:26;11.50;;;1.80;;
68379;SDS011;57711;53.196;19.638;2023-05-14T10:23:57;7.40;;;1.80;;
68379;SDS011;57711;53.196;19.638;2023-05-14T10:26:24;7.40;;;3.30;;
68379;SDS011;57711;53.196;19.638;2023-05-14T10:28:52;5.80;;;2.70;;
68379;SDS011;57711;53.196;19.638;2023-05-14T10:31:21;6.90;;;2.10;;
68379;SDS011;57711;53.196;19.638;2023-05-14T10:33:50;3.10;;;1.90;;
68379;SDS011;57711;53.196;19.638;2023-05-14T10:36:17;5.30;;;2.20;;
68379;SDS011;57711;53.196;19.638;2023-05-14T10:38:44;7.70;;;1.90;;
68379;SDS011;57711;53.196;19.638;2023-05-14T10:41:13;5.70;;;2.20;;
68379;SDS011;57711;53.196;19.638;2023-05-14T10:43:43;7.90;;;2.30;;
68379;SDS011;57711;53.196;19.638;2023-05-14T10:46:11;4.50;;;3.40;;
68379;SDS011;57711;53.196;19.638;2023-05-14T10:48:41;3.70;;;2.50;;
68379;SDS011;57711;53.196;19.638;2023-05-14T10:51:09;8.00;;;4.10;;
68379;SDS011;57711;53.196;19.638;2023-05-14T10:53:40;8.70;;;3.80;;
68379;SDS011;57711;53.196;19.638;2023-05-14T10:56:09;4.80;;;1.90;;
68379;SDS011;57711;53.196;19.638;2023-05-14T10:58:43;5.60;;;3.20;;
68379;SDS011;57711;53.196;19.638;2023-05-14T11:01:11;12.80;;;7.00;;
68379;SDS011;57711;53.196;19.638;2023-05-14T11:03:43;5.90;;;2.10;;
68379;SDS011;57711;53.196;19.638;2023-05-14T11:06:13;10.60;;;2.80;;
68379;SDS011;57711;53.196;19.638;2023-05-14T11:08:41;8.20;;;4.80;;
68379;SDS011;57711;53.196;19.638;2023-05-14T11:11:10;6.70;;;3.10;;
68379;SDS011;57711;53.196;19.638;2023-05-14T11:13:38;7.10;;;2.90;;
68379;SDS011;57711;53.196;19.638;2023-05-14T11:16:05;10.00;;;2.00;;
68379;SDS011;57711;53.196;19.638;2023-05-14T11:18:35;4.90;;;1.70;;
68379;SDS011;57711;53.196;19.638;2023-05-14T11:21:04;8.50;;;4.00;;
68379;SDS011;57711;53.196;19.638;2023-05-14T11:23:31;9.80;;;4.70;;
68379;SDS011;57711;53.196;19.638;2023-05-14T11:25:58;6.80;;;2.10;;
68379;SDS011;57711;53.196;19.638;2023-05-14T11:28:26;20.30;;;10.50;;
68379;SDS011;57711;53.196;19.638;2023-05-14T11:30:53;33.20;;;15.60;;
68379;SDS011;57711;53.196;19.638;2023-05-14T11:33:20;8.90;;;5.20;;
68379;SDS011;57711;53.196;19.638;2023-05-14T11:35:47;9.50;;;4.00;;
68379;SDS011;57711;53.196;19.638;2023-05-14T11:38:15;6.40;;;3.00;;
68379;SDS011;57711;53.196;19.638;2023-05-14T11:40:53;5.20;;;3.80;;
68379;SDS011;57711;53.196;19.638;2023-05-14T11:43:21;7.70;;;2.20;;
68379;SDS011;57711;53.196;19.638;2023-05-14T11:45:52;4.80;;;2.40;;
68379;SDS011;57711;53.196;19.638;2023-05-14T11:48:20;6.10;;;1.90;;
68379;SDS011;57711;53.196;19.638;2023-05-14T11:50:48;11.40;;;3.60;;
68379;SDS011;57711;53.196;19.638;2023-05-14T11:53:26;7.20;;;3.10;;
68379;SDS011;57711;53.196;19.638;2023-05-14T11:55:55;8.60;;;4.70;;
68379;SDS011;57711;53.196;19.638;2023-05-14T11:58:25;16.70;;;5.50;;
68379;SDS011;57711;53.196;19.638;2023-05-14T12:00:54;11.30;;;6.60;;
68379;SDS011;57711;53.196;19.638;2023-05-14T12:03:21;10.10;;;2.30;;
68379;SDS011;57711;53.196;19.638;2023-05-14T12:05:55;7.60;;;2.20;;
68379;SDS011;57711;53.196;19.638;2023-05-14T12:08:28;6.60;;;2.00;;
68379;SDS011;57711;53.196;19.638;2023-05-14T12:10:57;6.50;;;2.00;;
68379;SDS011;57711;53.196;19.638;2023-05-14T12:13:26;9.70;;;2.70;;
68379;SDS011;57711;53.196;19.638;2023-05-14T12:15:55;7.80;;;2.20;;
68379;SDS011;57711;53.196;19.638;2023-05-14T12:18:24;11.40;;;2.40;;
68379;SDS011;57711;53.196;19.638;2023-05-14T12:20:53;37.30;;;26.60;;
68379;SDS011;57711;53.196;19.638;2023-05-14T12:23:27;12.70;;;7.00;;
68379;SDS011;57711;53.196;19.638;2023-05-14T12:26:02;11.30;;;4.30;;
68379;SDS011;57711;53.196;19.638;2023-05-14T12:28:32;7.20;;;2.30;;
68379;SDS011;57711;53.196;19.638;2023-05-14T12:31:04;4.10;;;2.20;;
68379;SDS011;57711;53.196;19.638;2023-05-14T12:33:31;5.40;;;2.50;;
68379;SDS011;57711;53.196;19.638;2023-05-14T12:35:58;7.20;;;2.40;;
68379;SDS011;57711;53.196;19.638;2023-05-14T12:38:47;7.90;;;3.20;;
68379;SDS011;57711;53.196;19.638;2023-05-14T12:41:24;4.40;;;2.30;;
68379;SDS011;57711;53.196;19.638;2023-05-14T12:43:51;5.90;;;2.10;;
68379;SDS011;57711;53.196;19.638;2023-05-14T12:46:18;5.80;;;2.70;;
68379;SDS011;57711;53.196;19.638;2023-05-14T12:48:45;4.40;;;2.30;;
68379;SDS011;57711;53.196;19.638;2023-05-14T12:51:13;10.00;;;2.90;;
68379;SDS011;57711;53.196;19.638;2023-05-14T12:53:40;4.60;;;2.40;;
68379;SDS011;57711;53.196;19.638;2023-05-14T12:56:07;3.90;;;1.80;;
68379;SDS011;57711;53.196;19.638;2023-05-14T12:58:35;6.60;;;4.50;;
68379;SDS011;57711;53.196;19.638;2023-05-14T13:01:02;10.10;;;5.40;;
68379;SDS011;57711;53.196;19.638;2023-05-14T13:03:31;5.60;;;2.30;;
68379;SDS011;57711;53.196;19.638;2023-05-14T13:05:58;4.00;;;2.10;;
68379;SDS011;57711;53.196;19.638;2023-05-14T13:08:25;15.20;;;6.50;;
68379;SDS011;57711;53.196;19.638;2023-05-14T13:10:53;7.70;;;2.20;;
68379;SDS011;57711;53.196;19.638;2023-05-14T13:13:21;13.40;;;2.40;;
68379;SDS011;57711;53.196;19.638;2023-05-14T13:15:50;7.40;;;2.70;;
68379;SDS011;57711;53.196;19.638;2023-05-14T13:18:18;8.80;;;2.00;;
68379;SDS011;57711;53.196;19.638;2023-05-14T13:20:45;8.00;;;2.70;;
68379;SDS011;57711;53.196;19.638;2023-05-14T13:23:13;11.90;;;3.60;;
68379;SDS011;57711;53.196;19.638;2023-05-14T13:25:40;9.00;;;2.10;;
68379;SDS011;57711;53.196;19.638;2023-05-14T13:28:08;3.90;;;3.00;;
68379;SDS011;57711;53.196;19.638;2023-05-14T13:30:35;7.80;;;2.90;;
68379;SDS011;57711;53.196;19.638;2023-05-14T13:33:02;6.90;;;2.60;;
68379;SDS011;57711;53.196;19.638;2023-05-14T13:35:30;6.60;;;2.60;;
68379;SDS011;57711;53.196;19.638;2023-05-14T13:37:57;5.00;;;1.80;;
68379;SDS011;57711;53.196;19.638;2023-05-14T13:40:24;5.40;;;1.70;;
68379;SDS011;57711;53.196;19.638;2023-05-14T13:42:51;5.60;;;2.10;;
68379;SDS011;57711;53.196;19.638;2023-05-14T13:45:18;9.60;;;2.30;;
68379;SDS011;57711;53.196;19.638;2023-05-14T13:47:46;15.70;;;8.60;;
68379;SDS011;57711;53.196;19.638;2023-05-14T13:50:15;8.70;;;5.30;;
68379;SDS011;57711;53.196;19.638;2023-05-14T13:52:42;7.80;;;3.00;;
68379;SDS011;57711;53.196;19.638;2023-05-14T13:55:09;6.60;;;3.00;;
68379;SDS011;57711;53.196;19.638;2023-05-14T13:57:36;6.60;;;2.30;;
68379;SDS011;57711;53.196;19.638;2023-05-14T14:00:05;5.70;;;2.00;;
68379;SDS011;57711;53.196;19.638;2023-05-14T14:02:35;4.80;;;2.00;;
68379;SDS011;57711;53.196;19.638;2023-05-14T14:05:02;7.70;;;2.20;;
68379;SDS011;57711;53.196;19.638;2023-05-14T14:07:31;5.40;;;2.10;;
68379;SDS011;57711;53.196;19.638;2023-05-14T14:09:58;7.30;;;2.00;;
68379;SDS011;57711;53.196;19.638;2023-05-14T14:12:27;6.00;;;2.20;;
68379;SDS011;57711;53.196;19.638;2023-05-14T14:14:54;6.70;;;2.20;;
68379;SDS011;57711;53.196;19.638;2023-05-14T14:17:21;7.60;;;2.40;;
68379;SDS011;57711;53.196;19.638;2023-05-14T14:19:48;8.90;;;3.00;;
68379;SDS011;57711;53.196;19.638;2023-05-14T14:22:15;17.10;;;2.30;;
68379;SDS011;57711;53.196;19.638;2023-05-14T14:24:43;4.90;;;2.90;;
68379;SDS011;57711;53.196;19.638;2023-05-14T14:27:10;8.20;;;3.20;;
68379;SDS011;57711;53.196;19.638;2023-05-14T14:29:37;4.60;;;2.20;;
68379;SDS011;57711;53.196;19.638;2023-05-14T14:32:04;13.00;;;3.00;;
68379;SDS011;57711;53.196;19.638;2023-05-14T14:34:32;11.90;;;5.00;;
68379;SDS011;57711;53.196;19.638;2023-05-14T14:36:59;5.90;;;2.90;;
68379;SDS011;57711;53.196;19.638;2023-05-14T14:39:26;6.60;;;2.30;;
68379;SDS011;57711;53.196;19.638;2023-05-14T14:41:54;2.60;;;1.50;;
68379;SDS011;57711;53.196;19.638;2023-05-14T14:44:21;6.40;;;1.70;;
68379;SDS011;57711;53.196;19.638;2023-05-14T14:46:48;10.80;;;2.10;;